Aeroporto :
LOGIN :

Iscrizione | Disclaimer

   EN    FR    IT 

 










Sommario :    VFR   VFR Marginale   IFR   IFR Intensivo   IFR Molto Intensivo
Visibilità : 
Base nubi : 
>= 8 km
>= 3000ft
5 / 8 km
1000 / 3000 ft
1500m / 5 km
500 / 1000 ft
800 / 1500m
200 / 500 ft
< 800m
< 200 ft
Simboli :   Temporali  Nebbia  Neve Forte  Precipitazioni Forti  Vento > 20 kt
SIGMETs :   Varie  Temporali  Ghiacco  Turbolenza  Onda orograficha  Ceneri Vulcaniche






- Altitudine del aeroporto : 276 ft


LYVR - Vršac International

ULTIMO METAR :
  • 230700Z 22003KT 170V270 CAVOK 26/22 Q1014 NOSIG

METARs OBSOLETI :
  • 230630Z 22005KT 190V250 CAVOK 25/22 Q1014 NOSIG
  • 230600Z 23004KT 170V260 CAVOK 24/22 Q1014 NOSIG
  • 230530Z 00000KT CAVOK 23/22 Q1014 NOSIG
  • 230500Z 00000KT CAVOK 22/22 Q1013 NOSIG
  • 230430Z VRB01KT CAVOK 21/21 Q1013 NOSIG
  • 230400Z 23003KT 200V270 9999 MIFG NSC 20/20 Q1013 NOSIG
  • 230330Z 00000KT 9999 MIFG NSC 19/19 Q1013 NOSIG
  • 230300Z AUTO VRB01KT CAVOK 19/19 Q1013
  • 230230Z AUTO VRB02KT CAVOK 20/20 Q1013

TAF TAF LYVR
Valido dal 23 a 06 ore il 24 a 06 ore UTC


230500Z 2306/2406 35005KT CAVOK TX32/2313Z TN20/2403Z
TEMPO 2313/2317 01020KT 4000 TSRA SCT035CB SCT040
TEMPO 2400/2406 33015KT 3000 TSRA SCT030CB BKN040



MetMap, La meteo Aeronautica in un colpo d'occhio ! - Copyright ORBIFLY Dicembre 2007 - Disclaimer

ORBIFLY MET'MAP TEAM :

Programmazione e sviluppo : Alexandra Zaïnal
Concezione : Baudouin d'Aumeries
Supporto tecnico e logistico : Manuel Goepfert
Aiuto : Marc-Olivier Méhu
Aiuto per la traduzione : Arnaldo La Scala




FONTI E CREDITI :

   NOAA